createdAt,value
2018-07-14T00:02:50.613Z,10.60
2018-07-14T00:05:54.227Z,9.23
2018-07-14T00:08:57.872Z,9.20
2018-07-14T00:12:01.479Z,10.90
2018-07-14T00:15:05.810Z,11.50
2018-07-14T00:18:09.431Z,14.73
2018-07-14T00:21:13.446Z,10.83
2018-07-14T00:24:17.153Z,12.23
2018-07-14T00:27:20.745Z,12.03
2018-07-14T00:30:24.373Z,11.70
2018-07-14T00:33:28.422Z,11.83
2018-07-14T00:36:32.065Z,11.83
2018-07-14T00:39:35.702Z,11.70
2018-07-14T00:42:39.350Z,11.20
2018-07-14T00:45:42.969Z,14.13
2018-07-14T00:48:46.412Z,13.63
2018-07-14T00:51:49.941Z,11.37
2018-07-14T00:54:53.566Z,12.13
2018-07-14T00:57:57.004Z,11.97
2018-07-14T01:01:00.566Z,13.83
2018-07-14T01:04:04.029Z,16.90
2018-07-14T01:07:07.586Z,11.47
2018-07-14T01:10:11.352Z,13.57
2018-07-14T01:13:14.986Z,18.80
2018-07-14T01:16:18.610Z,12.23
2018-07-14T01:19:22.258Z,15.30
2018-07-14T01:22:25.890Z,12.00
2018-07-14T01:25:29.525Z,10.87
2018-07-14T01:28:33.136Z,12.77
2018-07-14T01:31:36.778Z,16.10
2018-07-14T01:34:40.213Z,13.63
2018-07-14T01:37:43.764Z,14.23
2018-07-14T01:40:47.386Z,16.00
2018-07-14T01:43:51.026Z,12.40
2018-07-14T01:46:54.661Z,11.90
2018-07-14T01:49:58.303Z,11.70
2018-07-14T01:53:01.922Z,14.57
2018-07-14T01:56:05.558Z,11.60
2018-07-14T01:59:09.425Z,15.47
2018-07-14T02:02:13.073Z,13.43
2018-07-14T02:05:16.705Z,15.67
2018-07-14T02:08:20.372Z,13.80
2018-07-14T02:11:23.898Z,13.70
2018-07-14T02:14:27.542Z,13.77
2018-07-14T02:17:31.166Z,16.37
2018-07-14T02:20:34.806Z,16.77
2018-07-14T02:23:38.443Z,17.27
2018-07-14T02:26:42.066Z,14.80
2018-07-14T02:29:45.679Z,16.53
2018-07-14T02:32:49.591Z,13.70
2018-07-14T02:35:53.206Z,15.57
2018-07-14T02:38:56.868Z,15.13
2018-07-14T02:42:00.474Z,18.03
2018-07-14T02:45:04.449Z,15.60
2018-07-14T02:48:08.060Z,13.87
2018-07-14T02:51:11.759Z,20.40
2018-07-14T02:54:15.393Z,18.50
2018-07-14T02:57:19.108Z,16.27
2018-07-14T03:00:22.795Z,15.67
2018-07-14T03:03:26.234Z,18.03
2018-07-14T03:06:29.764Z,19.00
2018-07-14T03:09:33.273Z,16.57
2018-07-14T03:12:36.794Z,17.70
2018-07-14T03:15:40.836Z,20.40
2018-07-14T03:18:44.445Z,19.43
2018-07-14T03:21:48.084Z,19.73
2018-07-14T03:24:51.514Z,20.33
2018-07-14T03:27:55.079Z,18.30
2018-07-14T03:30:58.523Z,18.10
2018-07-14T03:34:02.087Z,17.97
2018-07-14T03:37:05.730Z,23.20
2018-07-14T03:40:09.366Z,19.20
2018-07-14T03:43:12.974Z,15.33
2018-07-14T03:46:16.624Z,18.67
2018-07-14T03:49:20.251Z,18.60
2018-07-14T03:52:23.878Z,18.63
2018-07-14T03:55:27.496Z,19.27
2018-07-14T03:58:30.956Z,21.50
2018-07-14T04:01:34.565Z,21.13
2018-07-14T04:04:38.204Z,17.13
2018-07-14T04:07:41.638Z,18.67
2018-07-14T04:10:45.178Z,18.03
2018-07-14T04:13:48.787Z,22.07
2018-07-14T04:16:52.437Z,16.17
2018-07-14T04:19:56.261Z,19.17
2018-07-14T04:23:00.697Z,21.27
2018-07-14T04:26:04.326Z,24.23
2018-07-14T04:29:07.959Z,20.23
2018-07-14T04:32:11.569Z,18.90
2018-07-14T04:35:15.208Z,22.17
2018-07-14T04:38:18.906Z,21.57
2018-07-14T04:41:22.544Z,17.60
2018-07-14T04:44:25.975Z,18.97
2018-07-14T04:47:29.515Z,16.63
2018-07-14T04:50:33.128Z,16.73
2018-07-14T04:53:37.181Z,17.00
2018-07-14T04:56:41.287Z,15.80
2018-07-14T04:59:45.040Z,15.27
2018-07-14T05:02:48.687Z,19.17
2018-07-14T05:05:52.428Z,20.67
2018-07-14T05:08:56.053Z,15.83
2018-07-14T05:11:59.721Z,17.17
2018-07-14T05:15:03.470Z,14.15
2018-07-14T05:18:07.104Z,14.43
2018-07-14T05:21:10.718Z,13.55
2018-07-14T05:24:14.349Z,14.53
2018-07-14T05:27:18.009Z,11.50
2018-07-14T05:30:21.444Z,13.10
2018-07-14T05:33:24.980Z,11.83
2018-07-14T05:36:28.609Z,12.80
2018-07-14T05:39:32.061Z,13.35
2018-07-14T05:42:35.580Z,13.38
2018-07-14T05:45:39.210Z,12.13
2018-07-14T05:48:43.077Z,13.83
2018-07-14T05:51:46.714Z,13.25
2018-07-14T05:54:50.164Z,14.43
2018-07-14T05:57:53.710Z,15.88
2018-07-14T06:00:57.130Z,13.50
2018-07-14T06:04:00.700Z,11.40
2018-07-14T06:07:04.324Z,14.20
2018-07-14T06:10:07.954Z,14.33
2018-07-14T06:13:11.978Z,12.33
2018-07-14T06:16:16.977Z,14.60
2018-07-14T06:19:20.701Z,13.18
2018-07-14T06:22:24.437Z,15.58
2018-07-14T06:25:27.868Z,17.52
2018-07-14T06:28:31.410Z,12.60
2018-07-14T06:31:35.333Z,11.85
2018-07-14T06:34:39.146Z,15.43
2018-07-14T06:37:42.781Z,14.60
2018-07-14T06:40:46.412Z,14.95
2018-07-14T06:43:50.015Z,15.90
2018-07-14T06:46:53.663Z,14.83
2018-07-14T06:49:57.406Z,14.33
2018-07-14T06:53:00.846Z,16.00
2018-07-14T06:56:04.391Z,16.37
2018-07-14T06:59:08.009Z,12.05
2018-07-14T07:02:11.627Z,12.53
2018-07-14T07:05:15.432Z,12.35
2018-07-14T07:08:19.179Z,10.35
2018-07-14T07:11:22.850Z,10.65
2018-07-14T07:14:26.477Z,10.03
2018-07-14T07:17:29.954Z,13.32
2018-07-14T07:20:33.491Z,14.23
2018-07-14T07:23:37.127Z,12.65
2018-07-14T07:26:40.744Z,13.80
2018-07-14T07:29:44.378Z,11.80
2018-07-14T07:32:47.993Z,17.75
2018-07-14T07:35:51.698Z,11.18
2018-07-14T07:38:55.315Z,12.63
2018-07-14T07:41:58.950Z,11.00
2018-07-14T07:45:02.557Z,12.75
2018-07-14T07:48:06.227Z,12.45
2018-07-14T07:51:09.826Z,12.93
2018-07-14T07:54:13.517Z,11.05
2018-07-14T07:57:17.113Z,10.88
2018-07-14T08:00:20.787Z,11.78
2018-07-14T08:06:50.743Z,13.45
2018-07-14T08:09:54.468Z,12.25
2018-07-14T08:12:58.122Z,12.82
2018-07-14T08:16:01.806Z,12.40
2018-07-14T08:19:08.502Z,11.30
2018-07-14T08:22:12.128Z,18.73
2018-07-14T08:25:15.759Z,13.08
2018-07-14T08:28:19.365Z,11.05
2018-07-14T08:31:23.101Z,12.45
2018-07-14T08:34:26.709Z,14.55
2018-07-14T08:37:30.478Z,10.93
2018-07-14T08:40:34.130Z,10.58
2018-07-14T08:43:37.824Z,11.78
2018-07-14T08:46:41.434Z,10.15
2018-07-14T08:49:45.079Z,10.63
2018-07-14T08:52:48.695Z,11.35
2018-07-14T08:55:52.323Z,18.98
2018-07-14T08:58:55.952Z,13.08
2018-07-14T09:01:59.590Z,14.65
2018-07-14T09:05:03.241Z,14.83
2018-07-14T09:08:06.886Z,13.13
2018-07-14T09:11:10.515Z,17.92
2018-07-14T09:14:13.981Z,12.30
2018-07-14T09:17:17.501Z,11.80
2018-07-14T09:20:21.139Z,9.28
2018-07-14T09:23:24.767Z,12.33
2018-07-14T09:26:28.405Z,10.88
2018-07-14T09:29:32.072Z,9.80
2018-07-14T09:32:35.741Z,10.82
2018-07-14T09:35:39.181Z,12.78
2018-07-14T09:38:42.741Z,10.45
2018-07-14T09:41:46.379Z,13.43
2018-07-14T09:44:50.020Z,9.60
2018-07-14T09:47:53.630Z,9.45
2018-07-14T09:50:57.259Z,9.78
2018-07-14T09:54:00.901Z,10.55
2018-07-14T09:57:04.943Z,10.55
2018-07-14T10:00:13.346Z,12.03
2018-07-14T10:03:17.053Z,9.35
2018-07-14T10:06:20.411Z,10.90
2018-07-14T10:09:23.971Z,8.65
2018-07-14T10:12:27.397Z,9.13
2018-07-14T10:15:30.937Z,9.48
2018-07-14T10:18:34.558Z,7.67
2018-07-14T10:21:38.225Z,11.25
2018-07-14T10:24:41.851Z,10.08
2018-07-14T10:27:45.534Z,6.72
2018-07-14T10:30:49.145Z,9.43
2018-07-14T10:33:52.832Z,10.48
2018-07-14T10:36:56.241Z,8.33
2018-07-14T10:39:59.817Z,10.53
2018-07-14T10:43:03.431Z,9.05
2018-07-14T10:46:07.214Z,11.73
2018-07-14T10:49:10.826Z,9.23
2018-07-14T10:52:14.465Z,9.58
2018-07-14T10:55:18.074Z,10.68
2018-07-14T10:58:21.713Z,9.40
2018-07-14T11:01:25.404Z,11.10
2018-07-14T11:04:28.917Z,12.33
2018-07-14T11:07:32.480Z,9.85
2018-07-14T11:10:36.411Z,8.45
2018-07-14T11:13:40.024Z,10.45
2018-07-14T11:16:43.470Z,7.80
2018-07-14T11:19:47.011Z,10.68
2018-07-14T11:22:50.623Z,9.83
2018-07-14T11:25:54.256Z,9.05
2018-07-14T11:28:57.878Z,6.50
2018-07-14T11:32:01.500Z,8.30
2018-07-14T11:35:05.158Z,9.33
2018-07-14T11:38:08.875Z,9.15
2018-07-14T11:41:12.522Z,7.83
2018-07-14T11:44:16.234Z,8.10
2018-07-14T11:47:19.846Z,9.65
2018-07-14T11:50:23.475Z,10.15
2018-07-14T11:53:27.151Z,9.80
2018-07-14T11:56:30.767Z,10.60
2018-07-14T11:59:34.389Z,8.50
2018-07-14T12:02:38.010Z,10.15
2018-07-14T12:05:41.659Z,9.28
2018-07-14T12:08:45.297Z,12.80
2018-07-14T12:11:48.946Z,10.35
2018-07-14T12:14:52.394Z,10.70
2018-07-14T12:17:56.006Z,12.73
2018-07-14T12:20:59.647Z,9.43
2018-07-14T12:24:03.343Z,10.20
2018-07-14T12:27:06.962Z,11.40
2018-07-14T12:30:10.650Z,9.40
2018-07-14T12:33:14.265Z,7.65
2018-07-14T12:36:18.106Z,7.00
2018-07-14T12:39:21.761Z,9.58
2018-07-14T12:42:25.380Z,7.87
2018-07-14T12:45:28.810Z,8.73
2018-07-14T12:48:32.354Z,6.87
2018-07-14T12:51:35.984Z,7.85
2018-07-14T12:54:39.616Z,9.15
2018-07-14T12:57:43.218Z,6.42
2018-07-14T13:00:46.867Z,11.03
2018-07-14T13:03:50.553Z,11.78
2018-07-14T13:06:54.205Z,8.98
2018-07-14T13:09:57.649Z,8.65
2018-07-14T13:13:01.213Z,9.63
2018-07-14T13:16:04.862Z,11.35
2018-07-14T13:19:08.522Z,7.58
2018-07-14T13:22:12.158Z,10.82
2018-07-14T13:25:15.807Z,8.75
2018-07-14T13:28:19.422Z,9.00
2018-07-14T13:31:23.045Z,7.80
2018-07-14T13:34:26.705Z,9.13
2018-07-14T13:37:30.371Z,10.50
2018-07-14T13:40:34.034Z,9.68
2018-07-14T13:43:37.698Z,9.28
2018-07-14T13:46:41.432Z,8.13
2018-07-14T13:49:45.150Z,7.40
2018-07-14T13:52:48.699Z,8.53
2018-07-14T13:55:52.334Z,7.75
2018-07-14T13:58:55.805Z,10.30
2018-07-14T14:01:59.409Z,10.08
2018-07-14T14:05:03.307Z,10.65
2018-07-14T14:08:06.934Z,8.25
2018-07-14T14:11:10.648Z,7.17
2018-07-14T14:14:15.377Z,8.73
2018-07-14T14:17:18.995Z,7.87
2018-07-14T14:20:22.636Z,6.65
2018-07-14T14:23:26.474Z,10.15
2018-07-14T14:26:30.111Z,9.90
2018-07-14T14:29:33.742Z,8.50
2018-07-14T14:32:37.383Z,7.60
2018-07-14T14:35:41.011Z,7.85
2018-07-14T14:38:44.458Z,8.48
2018-07-14T14:41:48.104Z,7.15
2018-07-14T14:44:51.806Z,7.83
2018-07-14T14:47:55.562Z,6.83
2018-07-14T14:50:59.183Z,8.25
2018-07-14T14:54:02.921Z,5.22
2018-07-14T14:57:06.546Z,5.53
2018-07-14T15:00:10.605Z,4.95
2018-07-14T15:03:14.175Z,5.60
2018-07-14T15:06:17.843Z,5.70
2018-07-14T15:09:21.498Z,6.75
2018-07-14T15:12:25.089Z,6.10
2018-07-14T15:15:28.741Z,5.75
2018-07-14T15:18:32.402Z,6.00
2018-07-14T15:21:36.012Z,3.95
2018-07-14T15:24:39.678Z,6.15
2018-07-14T15:27:43.394Z,6.85
2018-07-14T15:30:47.034Z,4.12
2018-07-14T15:33:50.770Z,5.37
2018-07-14T15:36:54.466Z,7.45
2018-07-14T15:39:58.046Z,6.20
2018-07-14T15:43:01.667Z,6.08
2018-07-14T15:46:05.389Z,4.70
2018-07-14T15:49:09.037Z,6.45
2018-07-14T15:52:12.681Z,5.95
2018-07-14T15:55:16.179Z,12.75
2018-07-14T15:58:19.683Z,8.28
2018-07-14T16:01:23.438Z,6.22
2018-07-14T16:04:27.058Z,5.72
2018-07-14T16:07:30.674Z,6.45
2018-07-14T16:10:34.395Z,6.90
2018-07-14T16:13:38.097Z,5.42
2018-07-14T16:16:41.687Z,5.60
2018-07-14T16:19:45.401Z,6.08
2018-07-14T16:22:48.977Z,4.75
2018-07-14T16:25:52.635Z,7.83
2018-07-14T16:28:56.295Z,4.83
2018-07-14T16:31:59.941Z,4.67
2018-07-14T16:35:03.642Z,4.67
2018-07-14T16:38:07.647Z,5.58
2018-07-14T16:41:11.332Z,4.70
2018-07-14T16:44:15.035Z,4.72
2018-07-14T16:47:18.622Z,6.73
2018-07-14T16:50:22.340Z,17.75
2018-07-14T16:53:25.923Z,7.60
2018-07-14T16:56:29.558Z,4.22
2018-07-14T17:02:52.442Z,6.30
2018-07-14T17:05:56.058Z,6.12
2018-07-14T17:08:59.758Z,7.28
2018-07-14T17:12:03.470Z,3.70
2018-07-14T17:15:07.137Z,6.50
2018-07-14T17:18:10.594Z,24.90
2018-07-14T17:21:14.127Z,8.58
2018-07-14T17:24:17.591Z,5.85
2018-07-14T17:27:21.183Z,6.42
2018-07-14T17:30:24.818Z,6.33
2018-07-14T17:33:28.536Z,6.17
2018-07-14T17:36:32.126Z,5.92
2018-07-14T17:39:35.753Z,13.15
2018-07-14T17:42:39.441Z,6.87
2018-07-14T17:45:43.054Z,7.85
2018-07-14T17:48:46.669Z,6.53
2018-07-14T17:51:50.419Z,6.35
2018-07-14T17:54:53.943Z,4.35
2018-07-14T17:57:57.563Z,7.13
2018-07-14T18:01:01.179Z,4.10
2018-07-14T18:04:05.050Z,6.70
2018-07-14T18:07:08.570Z,4.78
2018-07-14T18:10:12.164Z,5.28
2018-07-14T18:13:15.746Z,5.45
2018-07-14T18:16:19.401Z,4.90
2018-07-14T18:19:23.382Z,5.35
2018-07-14T18:22:26.990Z,11.10
2018-07-14T18:25:30.685Z,10.60
2018-07-14T18:28:35.005Z,9.70
2018-07-14T18:31:38.646Z,6.97
2018-07-14T18:34:42.299Z,7.57
2018-07-14T18:37:46.011Z,4.67
2018-07-14T18:40:49.617Z,6.77
2018-07-14T18:43:53.256Z,4.17
2018-07-14T18:46:56.917Z,4.73
2018-07-14T18:50:00.518Z,7.17
2018-07-14T18:53:03.994Z,12.00
2018-07-14T18:56:07.530Z,5.37
2018-07-14T18:59:11.153Z,6.60
2018-07-14T19:02:14.795Z,10.93
2018-07-14T19:05:18.443Z,12.37
2018-07-14T19:08:22.050Z,6.37
2018-07-14T19:11:25.682Z,5.10
2018-07-14T19:14:29.442Z,6.63
2018-07-14T19:17:33.210Z,4.20
2018-07-14T19:20:36.827Z,5.20
2018-07-14T19:23:40.459Z,4.23
2018-07-14T19:26:44.107Z,4.97
2018-07-14T19:29:47.774Z,5.20
2018-07-14T19:32:51.507Z,7.63
2018-07-14T19:35:55.157Z,5.30
2018-07-14T19:38:58.943Z,4.73
2018-07-14T19:42:02.628Z,6.33
2018-07-14T19:45:06.269Z,7.20
2018-07-14T19:48:09.861Z,5.37
2018-07-14T19:51:13.484Z,7.27
2018-07-14T19:54:17.121Z,5.67
2018-07-14T19:57:20.727Z,4.70
2018-07-14T20:00:24.847Z,3.93
2018-07-14T20:03:28.465Z,5.63
2018-07-14T20:06:32.119Z,4.57
2018-07-14T20:09:35.749Z,4.93
2018-07-14T20:12:39.654Z,4.80
2018-07-14T20:15:43.270Z,6.10
2018-07-14T20:18:46.890Z,7.43
2018-07-14T20:21:50.498Z,6.20
2018-07-14T20:24:54.149Z,4.60
2018-07-14T20:27:57.771Z,6.27
2018-07-14T20:31:01.395Z,5.30
2018-07-14T20:34:05.534Z,4.60
2018-07-14T20:37:09.971Z,4.90
2018-07-14T20:40:13.598Z,4.83
2018-07-14T20:43:17.242Z,5.83
2018-07-14T20:46:20.854Z,5.00
2018-07-14T20:49:24.304Z,4.40
2018-07-14T20:52:27.840Z,4.83
2018-07-14T20:55:31.438Z,4.10
2018-07-14T20:58:35.055Z,3.60
2018-07-14T21:01:38.490Z,4.30
2018-07-14T21:04:42.059Z,7.43
2018-07-14T21:07:45.506Z,6.53
2018-07-14T21:10:49.019Z,5.33
2018-07-14T21:13:52.695Z,7.43
2018-07-14T21:16:56.306Z,5.57
2018-07-14T21:19:59.928Z,5.37
2018-07-14T21:23:03.541Z,6.50
2018-07-14T21:26:07.228Z,10.50
2018-07-14T21:29:10.826Z,5.47
2018-07-14T21:32:14.630Z,5.47
2018-07-14T21:35:18.382Z,6.70
2018-07-14T21:38:21.849Z,8.83
2018-07-14T21:41:25.371Z,4.60
2018-07-14T21:44:29.015Z,13.27
2018-07-14T21:47:32.638Z,6.00
2018-07-14T21:50:36.366Z,3.80
2018-07-14T21:53:39.951Z,5.37
2018-07-14T21:56:43.570Z,3.53
2018-07-14T21:59:47.419Z,4.60
2018-07-14T22:02:51.062Z,5.77
2018-07-14T22:05:54.713Z,3.87
2018-07-14T22:08:58.392Z,3.70
2018-07-14T22:12:02.166Z,4.03
2018-07-14T22:15:05.860Z,7.20
2018-07-14T22:18:09.428Z,5.77
2018-07-14T22:21:12.909Z,4.20
2018-07-14T22:24:16.248Z,4.63
2018-07-14T22:27:19.809Z,5.37
2018-07-14T22:30:23.421Z,4.00
2018-07-14T22:33:26.850Z,4.07
2018-07-14T22:36:30.370Z,4.17
2018-07-14T22:39:33.987Z,4.60
2018-07-14T22:42:37.585Z,4.57
2018-07-14T22:45:41.231Z,3.63
2018-07-14T22:48:44.657Z,4.53
2018-07-14T22:51:48.210Z,4.90
2018-07-14T22:54:51.806Z,3.27
2018-07-14T22:57:55.447Z,5.90
2018-07-14T23:00:59.055Z,3.73
2018-07-14T23:04:02.712Z,3.13
2018-07-14T23:07:06.437Z,4.83
2018-07-14T23:10:10.050Z,3.63
2018-07-14T23:13:13.490Z,4.03
2018-07-14T23:16:17.028Z,3.33
2018-07-14T23:19:20.690Z,3.43
2018-07-14T23:22:24.303Z,2.77
2018-07-14T23:25:27.995Z,3.27
2018-07-14T23:28:31.646Z,3.37
2018-07-14T23:31:35.272Z,3.63
2018-07-14T23:34:38.890Z,3.30
2018-07-14T23:37:42.510Z,3.37
2018-07-14T23:40:46.135Z,2.67
2018-07-14T23:43:50.160Z,4.40
2018-07-14T23:46:53.768Z,2.83
2018-07-14T23:49:57.406Z,3.07
2018-07-14T23:53:01.044Z,4.80
2018-07-14T23:56:04.873Z,4.10
2018-07-14T23:59:08.461Z,4.20
